• Join FlightAware (Why Join?)
  • Login
  • US Flag 
07:38AM EDT


 

Airport Tracker/Info


-or-


 

Live Flight TrackerFlight Track Log ✈ SWA471 ✈ 23-Apr-2013 ✈ KMCI - KDAL

Flight Track Log - Related Links

Times and Time Zones

All times are in EDT time to prevent confusion due to time zone crossing. See the SWA471 flight status page for this flight to view local times or setup timezone preferences in your user account.

Time Position Orientation Groundspeed Altitude Reporting Facility
EDT Latitude Longitude Course Direction KTS MPH feet Rate Location/Type
09:43PM 39.3167 -94.7167 360° North 168 193 2,000  Level Kansas City TRACON
09:43PM 39.3500 -94.7167 360° North 167 192 3,300 2,820 Climbing Kansas City TRACON
09:44PM 39.3500 -94.7833 270° West 273 314 6,300 2,700 Climbing Kansas City TRACON
09:45PM 39.3378 -94.7972 221° Southwest 265 305 6,700 4,200 Climbing Kansas City Center
09:46PM 39.2528 -94.8225 193° South 276 318 11,500 3,480 Climbing Kansas City Center
09:47PM 39.1647 -94.8481 193° South 341 392 13,800 3,000 Climbing Kansas City Center
09:48PM 39.0750 -94.8733 192° South 342 394 17,700 3,060 Climbing Kansas City Center
09:49PM 38.9694 -94.9036 193° South 347 399 20,100 2,460 Climbing Kansas City Center
09:50PM 38.8722 -94.9311 192° South 370 426 22,900 2,460 Climbing Kansas City Center
09:51PM 38.7772 -94.9578 192° South 366 421 25,100 2,040 Climbing Kansas City Center
09:52PM 38.6606 -94.9894 192° South 381 438 27,100 1,920 Climbing Kansas City Center
09:53PM 38.5589 -95.0197 193° South 390 449 29,100 2,100 Climbing Kansas City Center
09:54PM 38.4422 -95.0511 192° South 382 440 31,500 2,040 Climbing Kansas City Center
09:55PM 38.3442 -95.0789 193° South 376 433 33,300 1,620 Climbing Kansas City Center
09:56PM 38.2467 -95.1050 192° South 374 430 34,800 1,320 Climbing Kansas City Center
09:57PM 38.1319 -95.1389 193° South 377 434 36,000 540 Climbing Kansas City Center
09:58PM 38.0358 -95.1739 196° South 375 432 36,000  Level Kansas City Center
09:59PM 37.9364 -95.2081 195° South 366 421 36,000  Level Kansas City Center
10:00PM 37.8372 -95.2414 195° South 367 422 36,000  Level Kansas City Center
10:01PM 37.7369 -95.2769 196° South 372 428 36,000  Level Kansas City Center
10:02PM 37.6361 -95.3111 195° South 375 432 36,000  Level Kansas City Center
10:03PM 37.5331 -95.3447 195° South 379 436 36,000  Level Kansas City Center
10:04PM 37.4306 -95.3811 196° South 381 438 36,000  Level Kansas City Center
10:05PM 37.3269 -95.4139 194° South 383 441 36,000  Level Kansas City Center
10:06PM 37.2047 -95.4558 195° South 380 437 36,000  Level Kansas City Center
10:07PM 37.1028 -95.4889 195° South 377 434 36,000  Level Kansas City Center
10:08PM 37.0014 -95.5222 195° South 376 433 36,000  Level Kansas City Center
10:09PM 36.9003 -95.5564 195° South 377 434 36,000  Level Kansas City Center
10:10PM 36.8006 -95.5900 195° South 374 430 36,000  Level Kansas City Center
10:11PM 36.6992 -95.6233 195° South 375 432 36,000  Level Kansas City Center
10:12PM 36.5992 -95.6578 195° South 375 432 36,000  Level Kansas City Center
10:13PM 36.4972 -95.6892 194° South 376 433 36,000  Level Kansas City Center
10:14PM 36.3869 -95.6819 177° South 405 466 36,000  Level Kansas City Center
10:15PM 36.2736 -95.6539 169° South 413 475 36,000  Level Kansas City Center
10:16PM 36.1597 -95.6281 170° South 415 478 36,000  Level Kansas City Center
10:17PM 36.0292 -95.5986 170° South 415 478 36,000  Level Kansas City Center
10:18PM 35.9164 -95.5711 169° South 415 478 36,000  Level Kansas City Center
10:19PM 35.8011 -95.5494 171° South 416 479 36,000  Level Kansas City Center
10:20PM 35.6883 -95.5447 178° South 407 468 36,000  Level Kansas City Center
10:21PM 35.5717 -95.5406 178° South 408 470 36,000  Level Fort Worth Center
10:22PM 35.4567 -95.5303 176° South 408 470 36,000  Level Fort Worth Center
10:23PM 35.3397 -95.5203 176° South 413 475 36,000  Level Fort Worth Center
10:24PM 35.2250 -95.5150 178° South 418 481 36,000  Level Fort Worth Center
10:25PM 35.1103 -95.5050 176° South 423 487 36,000  Level Fort Worth Center
10:26PM 34.9953 -95.4975 177° South 423 487 36,000 -420 Level Fort Worth Center
10:27PM 34.8806 -95.4875 176° South 423 487 35,200 -900 Descending Fort Worth Center
10:28PM 34.7658 -95.4850 179° South 423 487 34,200 -1,020 Descending Fort Worth Center
10:29PM 34.6664 -95.5350 202° Southwest 399 459 33,200 -960 Descending Fort Worth Center
10:30PM 34.5772 -95.5825 204° Southwest 392 451 32,300 -900 Descending Fort Worth Center
10:31PM 34.4822 -95.6400 207° Southwest 392 451 31,400 -900 Descending Fort Worth Center
10:32PM 34.3786 -95.7000 206° Southwest 399 459 30,500 -1,020 Descending Fort Worth Center
10:33PM 34.2814 -95.7547 205° Southwest 399 459 29,400 -1,140 Descending Fort Worth Center
10:34PM 34.1800 -95.8144 206° Southwest 399 459 28,300 3,300 Descending Fort Worth Center
10:35PM 34.0783 -95.8714 205° Southwest 399 459 36,000 -3,780 Climbing Fort Worth Center
10:36PM 33.9831 -95.9281 206° Southwest 379 436 20,800 -9,300 Descending Fort Worth Center
10:37PM 33.8897 -95.9797 205° Southwest 374 430 17,400 -3,180 Descending Fort Worth Center
10:38PM 33.8047 -96.0286 206° Southwest 359 413 14,500 -3,120 Descending Fort Worth Center
10:39PM 33.7239 -96.0722 204° Southwest 330 380 11,200 -2,340 Descending Fort Worth Center
10:40PM 33.6408 -96.1211 206° Southwest 330 380 9,900 -600 Descending Fort Worth Center
10:41PM 33.5536 -96.1697 205° Southwest 341 392 10,000  Climbing Fort Worth Center
10:42PM 33.4686 -96.2181 205° Southwest 341 392 9,900 -60 Descending Fort Worth Center
10:43PM 33.3833 -96.2667 205° Southwest 341 392 9,900  Level Fort Worth Center
10:44PM 33.3150 -96.3047 205° Southwest 303 349 9,900 -540 Level Fort Worth Center
10:45PM 33.2589 -96.3428 210° Southwest 264 304 8,900 -1,380 Descending Fort Worth Center
10:46PM 33.2094 -96.4128 230° Southwest 256 295 7,200 -1,560 Descending Fort Worth Center
10:47PM 33.1511 -96.4383 200° South 251 289 5,800 -1,620 Descending Fort Worth Center
10:48PM 33.0803 -96.4664 198° South 251 289 4,000 -900 Descending Fort Worth Center
10:49PM 33.0200 -96.4894 198° South 251 289 4,000 -60 Level Fort Worth Center
10:50PM 32.9472 -96.5297 205° Southwest 256 295 3,900  Descending Fort Worth Center
10:51PM 32.8953 -96.5697 213° Southwest 256 295 4,000  Climbing Fort Worth Center
10:52PM 32.8308 -96.6222 214° Southwest 256 295 3,900 -180 Descending Fort Worth Center
10:53PM 32.7811 -96.6597 212° Southwest 239 275 3,700 -720 Descending Fort Worth Center
10:54PM 32.7333 -96.7000 215° Southwest 208 239 2,500 -600 Descending Dallas / Fort Worth TRACON
10:55PM 32.7667 -96.7500 308° West 180 207 2,500 -300 Level Dallas / Fort Worth TRACON
10:56PM 32.7833 -96.7833 301° West 131 151 1,900 -660 Descending Dallas / Fort Worth TRACON
10:57PM 32.8167 -96.8167 320° Northwest 104 120 1,200 -720 Descending Dallas / Fort Worth TRACON
10:59PM 32.8333 -96.8500 258° West  Level FlightAware Approximate
11:06PM 32.8471 -96.8518 258° West  Level Estimated
11:07PM 32.8471 -96.8518 258° West  Level Estimated